sensor_id;sensor_type;location;lat;lon;timestamp;P1;durP1;ratioP1;P2;durP2;ratioP2
14040;SDS011;7095;51.388;6.196;2023-04-01T00:01:20;4.93;;;1.60;;
14040;SDS011;7095;51.388;6.196;2023-04-01T00:03:50;8.97;;;1.90;;
14040;SDS011;7095;51.388;6.196;2023-04-01T00:06:20;7.03;;;1.90;;
14040;SDS011;7095;51.388;6.196;2023-04-01T00:08:49;6.73;;;1.87;;
14040;SDS011;7095;51.388;6.196;2023-04-01T00:11:17;6.17;;;1.67;;
14040;SDS011;7095;51.388;6.196;2023-04-01T00:13:46;4.63;;;2.13;;
14040;SDS011;7095;51.388;6.196;2023-04-01T00:16:15;5.53;;;1.83;;
14040;SDS011;7095;51.388;6.196;2023-04-01T00:18:49;10.17;;;1.97;;
14040;SDS011;7095;51.388;6.196;2023-04-01T00:21:19;8.47;;;2.00;;
14040;SDS011;7095;51.388;6.196;2023-04-01T00:23:48;5.83;;;1.40;;
14040;SDS011;7095;51.388;6.196;2023-04-01T00:26:18;4.93;;;1.57;;
14040;SDS011;7095;51.388;6.196;2023-04-01T00:28:48;7.73;;;1.70;;
14040;SDS011;7095;51.388;6.196;2023-04-01T00:31:18;4.63;;;1.30;;
14040;SDS011;7095;51.388;6.196;2023-04-01T00:33:47;5.67;;;1.70;;
14040;SDS011;7095;51.388;6.196;2023-04-01T00:36:18;4.93;;;1.40;;
14040;SDS011;7095;51.388;6.196;2023-04-01T00:38:48;4.70;;;1.30;;
14040;SDS011;7095;51.388;6.196;2023-04-01T00:41:19;4.53;;;1.33;;
14040;SDS011;7095;51.388;6.196;2023-04-01T00:43:49;6.73;;;1.50;;
14040;SDS011;7095;51.388;6.196;2023-04-01T00:46:23;4.13;;;1.67;;
14040;SDS011;7095;51.388;6.196;2023-04-01T00:48:52;6.53;;;1.00;;
14040;SDS011;7095;51.388;6.196;2023-04-01T00:51:25;6.07;;;1.10;;
14040;SDS011;7095;51.388;6.196;2023-04-01T00:53:57;7.20;;;1.33;;
14040;SDS011;7095;51.388;6.196;2023-04-01T00:56:30;4.23;;;1.23;;
14040;SDS011;7095;51.388;6.196;2023-04-01T00:59:03;4.53;;;1.30;;
14040;SDS011;7095;51.388;6.196;2023-04-01T01:01:35;3.83;;;1.53;;
14040;SDS011;7095;51.388;6.196;2023-04-01T01:04:04;4.97;;;1.23;;
14040;SDS011;7095;51.388;6.196;2023-04-01T01:06:37;4.13;;;1.20;;
14040;SDS011;7095;51.388;6.196;2023-04-01T01:09:21;5.93;;;1.40;;
14040;SDS011;7095;51.388;6.196;2023-04-01T01:11:59;4.33;;;1.13;;
14040;SDS011;7095;51.388;6.196;2023-04-01T01:14:36;4.67;;;1.20;;
14040;SDS011;7095;51.388;6.196;2023-04-01T01:17:15;4.13;;;1.13;;
14040;SDS011;7095;51.388;6.196;2023-04-01T01:20:05;1.87;;;0.90;;
14040;SDS011;7095;51.388;6.196;2023-04-01T01:26:06;2.10;;;0.83;;
14040;SDS011;7095;51.388;6.196;2023-04-01T01:28:51;3.37;;;1.20;;
14040;SDS011;7095;51.388;6.196;2023-04-01T01:31:29;3.13;;;1.20;;
14040;SDS011;7095;51.388;6.196;2023-04-01T01:34:08;1.40;;;0.93;;
14040;SDS011;7095;51.388;6.196;2023-04-01T01:36:47;3.67;;;1.23;;
14040;SDS011;7095;51.388;6.196;2023-04-01T01:39:21;3.87;;;0.80;;
14040;SDS011;7095;51.388;6.196;2023-04-01T01:41:56;6.97;;;1.17;;
14040;SDS011;7095;51.388;6.196;2023-04-01T01:44:28;3.13;;;0.90;;
14040;SDS011;7095;51.388;6.196;2023-04-01T01:46:59;1.70;;;0.90;;
14040;SDS011;7095;51.388;6.196;2023-04-01T01:49:28;5.40;;;0.83;;
14040;SDS011;7095;51.388;6.196;2023-04-01T01:52:01;2.03;;;1.00;;
14040;SDS011;7095;51.388;6.196;2023-04-01T01:54:30;0.43;;;0.43;;
14040;SDS011;7095;51.388;6.196;2023-04-01T01:57:01;2.73;;;1.10;;
14040;SDS011;7095;51.388;6.196;2023-04-01T01:59:34;2.33;;;0.97;;
14040;SDS011;7095;51.388;6.196;2023-04-01T02:02:06;4.93;;;0.97;;
14040;SDS011;7095;51.388;6.196;2023-04-01T02:04:38;1.43;;;1.00;;
14040;SDS011;7095;51.388;6.196;2023-04-01T02:07:13;0.60;;;0.57;;
14040;SDS011;7095;51.388;6.196;2023-04-01T02:09:46;6.03;;;1.23;;
14040;SDS011;7095;51.388;6.196;2023-04-01T02:12:17;1.77;;;0.93;;
14040;SDS011;7095;51.388;6.196;2023-04-01T02:14:49;1.23;;;0.77;;
14040;SDS011;7095;51.388;6.196;2023-04-01T02:17:22;2.50;;;1.23;;
14040;SDS011;7095;51.388;6.196;2023-04-01T02:19:56;1.73;;;1.27;;
14040;SDS011;7095;51.388;6.196;2023-04-01T02:22:28;1.70;;;1.00;;
14040;SDS011;7095;51.388;6.196;2023-04-01T02:25:01;2.93;;;1.33;;
14040;SDS011;7095;51.388;6.196;2023-04-01T02:27:32;2.70;;;1.50;;
14040;SDS011;7095;51.388;6.196;2023-04-01T02:30:01;1.50;;;1.40;;
14040;SDS011;7095;51.388;6.196;2023-04-01T02:32:30;6.10;;;1.90;;
14040;SDS011;7095;51.388;6.196;2023-04-01T02:35:01;3.27;;;1.67;;
14040;SDS011;7095;51.388;6.196;2023-04-01T02:37:31;2.07;;;1.70;;
14040;SDS011;7095;51.388;6.196;2023-04-01T02:40:02;2.50;;;1.73;;
14040;SDS011;7095;51.388;6.196;2023-04-01T02:42:31;4.80;;;2.40;;
14040;SDS011;7095;51.388;6.196;2023-04-01T02:45:00;1.73;;;1.30;;
14040;SDS011;7095;51.388;6.196;2023-04-01T02:47:28;2.60;;;1.43;;
14040;SDS011;7095;51.388;6.196;2023-04-01T02:49:57;4.63;;;2.53;;
14040;SDS011;7095;51.388;6.196;2023-04-01T02:52:26;3.40;;;1.40;;
14040;SDS011;7095;51.388;6.196;2023-04-01T02:55:04;3.33;;;2.63;;
14040;SDS011;7095;51.388;6.196;2023-04-01T02:57:34;3.20;;;2.20;;
14040;SDS011;7095;51.388;6.196;2023-04-01T03:00:03;3.30;;;2.40;;
14040;SDS011;7095;51.388;6.196;2023-04-01T03:02:38;3.60;;;2.50;;
14040;SDS011;7095;51.388;6.196;2023-04-01T03:05:07;4.30;;;2.33;;
14040;SDS011;7095;51.388;6.196;2023-04-01T03:07:35;4.50;;;2.77;;
14040;SDS011;7095;51.388;6.196;2023-04-01T03:10:06;3.23;;;2.77;;
14040;SDS011;7095;51.388;6.196;2023-04-01T03:12:35;3.73;;;2.33;;
14040;SDS011;7095;51.388;6.196;2023-04-01T03:15:04;4.07;;;2.67;;
14040;SDS011;7095;51.388;6.196;2023-04-01T03:17:38;3.60;;;2.10;;
14040;SDS011;7095;51.388;6.196;2023-04-01T03:20:07;6.03;;;2.60;;
14040;SDS011;7095;51.388;6.196;2023-04-01T03:22:37;4.03;;;2.50;;
14040;SDS011;7095;51.388;6.196;2023-04-01T03:25:10;2.97;;;2.23;;
14040;SDS011;7095;51.388;6.196;2023-04-01T03:27:38;2.90;;;2.07;;
14040;SDS011;7095;51.388;6.196;2023-04-01T03:30:08;3.57;;;2.07;;
14040;SDS011;7095;51.388;6.196;2023-04-01T03:32:45;3.07;;;1.83;;
14040;SDS011;7095;51.388;6.196;2023-04-01T03:35:14;4.53;;;2.60;;
14040;SDS011;7095;51.388;6.196;2023-04-01T03:37:45;3.53;;;3.00;;
14040;SDS011;7095;51.388;6.196;2023-04-01T03:40:15;3.23;;;2.57;;
14040;SDS011;7095;51.388;6.196;2023-04-01T03:42:43;3.93;;;3.30;;
14040;SDS011;7095;51.388;6.196;2023-04-01T03:45:13;6.53;;;3.70;;
14040;SDS011;7095;51.388;6.196;2023-04-01T03:47:42;5.83;;;4.03;;
14040;SDS011;7095;51.388;6.196;2023-04-01T03:50:10;3.73;;;3.43;;
14040;SDS011;7095;51.388;6.196;2023-04-01T03:52:39;6.27;;;4.30;;
14040;SDS011;7095;51.388;6.196;2023-04-01T03:55:07;6.20;;;4.30;;
14040;SDS011;7095;51.388;6.196;2023-04-01T03:57:39;5.80;;;4.33;;
14040;SDS011;7095;51.388;6.196;2023-04-01T04:00:15;5.03;;;4.53;;
14040;SDS011;7095;51.388;6.196;2023-04-01T04:02:48;9.50;;;5.10;;
14040;SDS011;7095;51.388;6.196;2023-04-01T04:05:21;5.33;;;4.80;;
14040;SDS011;7095;51.388;6.196;2023-04-01T04:07:50;10.23;;;5.53;;
14040;SDS011;7095;51.388;6.196;2023-04-01T04:10:19;5.27;;;4.77;;
14040;SDS011;7095;51.388;6.196;2023-04-01T04:12:51;6.47;;;5.60;;
14040;SDS011;7095;51.388;6.196;2023-04-01T04:15:24;4.73;;;4.20;;
14040;SDS011;7095;51.388;6.196;2023-04-01T04:17:53;5.13;;;4.63;;
14040;SDS011;7095;51.388;6.196;2023-04-01T04:20:21;8.30;;;5.10;;
14040;SDS011;7095;51.388;6.196;2023-04-01T04:22:50;5.17;;;4.40;;
14040;SDS011;7095;51.388;6.196;2023-04-01T04:25:19;5.97;;;4.57;;
14040;SDS011;7095;51.388;6.196;2023-04-01T04:27:47;4.80;;;4.30;;
14040;SDS011;7095;51.388;6.196;2023-04-01T04:30:17;4.67;;;4.17;;
14040;SDS011;7095;51.388;6.196;2023-04-01T04:32:46;8.87;;;4.73;;
14040;SDS011;7095;51.388;6.196;2023-04-01T04:35:14;5.90;;;4.63;;
14040;SDS011;7095;51.388;6.196;2023-04-01T04:37:43;5.50;;;4.87;;
14040;SDS011;7095;51.388;6.196;2023-04-01T04:40:11;6.33;;;5.60;;
14040;SDS011;7095;51.388;6.196;2023-04-01T04:42:41;6.63;;;5.70;;
14040;SDS011;7095;51.388;6.196;2023-04-01T04:45:12;6.13;;;5.40;;
14040;SDS011;7095;51.388;6.196;2023-04-01T04:47:51;8.17;;;6.17;;
14040;SDS011;7095;51.388;6.196;2023-04-01T04:50:20;7.50;;;6.23;;
14040;SDS011;7095;51.388;6.196;2023-04-01T04:52:48;7.00;;;6.30;;
14040;SDS011;7095;51.388;6.196;2023-04-01T04:55:17;8.87;;;6.53;;
14040;SDS011;7095;51.388;6.196;2023-04-01T04:57:50;7.87;;;6.87;;
14040;SDS011;7095;51.388;6.196;2023-04-01T05:00:19;9.73;;;7.50;;
14040;SDS011;7095;51.388;6.196;2023-04-01T05:03:01;10.90;;;7.50;;
14040;SDS011;7095;51.388;6.196;2023-04-01T05:05:32;9.57;;;8.17;;
14040;SDS011;7095;51.388;6.196;2023-04-01T05:08:01;10.57;;;7.93;;
14040;SDS011;7095;51.388;6.196;2023-04-01T05:10:30;10.40;;;9.30;;
14040;SDS011;7095;51.388;6.196;2023-04-01T05:12:59;9.20;;;7.90;;
14040;SDS011;7095;51.388;6.196;2023-04-01T05:15:27;10.57;;;8.90;;
14040;SDS011;7095;51.388;6.196;2023-04-01T05:17:56;11.27;;;8.77;;
14040;SDS011;7095;51.388;6.196;2023-04-01T05:20:26;10.03;;;8.87;;
14040;SDS011;7095;51.388;6.196;2023-04-01T05:22:55;11.57;;;10.00;;
14040;SDS011;7095;51.388;6.196;2023-04-01T05:25:24;11.07;;;9.97;;
14040;SDS011;7095;51.388;6.196;2023-04-01T05:27:52;11.33;;;10.10;;
14040;SDS011;7095;51.388;6.196;2023-04-01T05:30:23;12.23;;;10.17;;
14040;SDS011;7095;51.388;6.196;2023-04-01T05:33:04;14.50;;;10.70;;
14040;SDS011;7095;51.388;6.196;2023-04-01T05:35:34;14.50;;;11.80;;
14040;SDS011;7095;51.388;6.196;2023-04-01T05:38:03;14.83;;;11.70;;
14040;SDS011;7095;51.388;6.196;2023-04-01T05:40:34;13.77;;;11.33;;
14040;SDS011;7095;51.388;6.196;2023-04-01T05:43:02;14.67;;;10.93;;
14040;SDS011;7095;51.388;6.196;2023-04-01T05:45:31;11.97;;;10.73;;
14040;SDS011;7095;51.388;6.196;2023-04-01T05:48:13;12.60;;;11.27;;
14040;SDS011;7095;51.388;6.196;2023-04-01T05:50:43;14.50;;;11.00;;
14040;SDS011;7095;51.388;6.196;2023-04-01T05:53:13;15.60;;;11.90;;
14040;SDS011;7095;51.388;6.196;2023-04-01T05:55:43;14.27;;;12.17;;
14040;SDS011;7095;51.388;6.196;2023-04-01T05:58:12;15.97;;;11.90;;
14040;SDS011;7095;51.388;6.196;2023-04-01T06:00:44;14.40;;;11.97;;
14040;SDS011;7095;51.388;6.196;2023-04-01T06:03:15;16.13;;;11.97;;
14040;SDS011;7095;51.388;6.196;2023-04-01T06:05:46;12.50;;;11.20;;
14040;SDS011;7095;51.388;6.196;2023-04-01T06:08:15;11.43;;;10.00;;
14040;SDS011;7095;51.388;6.196;2023-04-01T06:10:55;13.17;;;10.57;;
14040;SDS011;7095;51.388;6.196;2023-04-01T06:13:37;11.07;;;9.87;;
14040;SDS011;7095;51.388;6.196;2023-04-01T06:16:29;12.83;;;11.23;;
14040;SDS011;7095;51.388;6.196;2023-04-01T06:19:11;13.73;;;12.33;;
14040;SDS011;7095;51.388;6.196;2023-04-01T06:21:54;15.37;;;11.53;;
14040;SDS011;7095;51.388;6.196;2023-04-01T06:24:43;13.17;;;11.77;;
14040;SDS011;7095;51.388;6.196;2023-04-01T06:27:24;12.93;;;11.60;;
14040;SDS011;7095;51.388;6.196;2023-04-01T06:30:10;15.10;;;11.63;;
14040;SDS011;7095;51.388;6.196;2023-04-01T06:33:11;14.27;;;11.87;;
14040;SDS011;7095;51.388;6.196;2023-04-01T06:38:53;13.43;;;12.03;;
14040;SDS011;7095;51.388;6.196;2023-04-01T06:44:31;15.47;;;11.70;;
14040;SDS011;7095;51.388;6.196;2023-04-01T06:47:28;13.27;;;11.87;;
14040;SDS011;7095;51.388;6.196;2023-04-01T06:50:41;12.40;;;10.83;;
14040;SDS011;7095;51.388;6.196;2023-04-01T06:53:36;12.23;;;10.57;;
14040;SDS011;7095;51.388;6.196;2023-04-01T06:56:41;13.23;;;10.63;;
14040;SDS011;7095;51.388;6.196;2023-04-01T06:59:20;11.40;;;10.20;;
14040;SDS011;7095;51.388;6.196;2023-04-01T07:01:53;11.40;;;10.30;;
14040;SDS011;7095;51.388;6.196;2023-04-01T07:04:25;10.23;;;9.13;;
14040;SDS011;7095;51.388;6.196;2023-04-01T07:06:58;9.23;;;8.30;;
14040;SDS011;7095;51.388;6.196;2023-04-01T07:09:31;10.47;;;9.37;;
14040;SDS011;7095;51.388;6.196;2023-04-01T07:12:29;8.33;;;7.53;;
14040;SDS011;7095;51.388;6.196;2023-04-01T07:15:25;8.83;;;7.67;;
14040;SDS011;7095;51.388;6.196;2023-04-01T07:17:58;10.70;;;8.60;;
14040;SDS011;7095;51.388;6.196;2023-04-01T07:20:32;8.67;;;7.27;;
14040;SDS011;7095;51.388;6.196;2023-04-01T07:23:04;8.73;;;7.30;;
14040;SDS011;7095;51.388;6.196;2023-04-01T07:25:58;9.50;;;7.20;;
14040;SDS011;7095;51.388;6.196;2023-04-01T07:28:50;8.17;;;7.33;;
14040;SDS011;7095;51.388;6.196;2023-04-01T07:31:36;8.10;;;6.70;;
14040;SDS011;7095;51.388;6.196;2023-04-01T07:34:15;8.57;;;6.80;;
14040;SDS011;7095;51.388;6.196;2023-04-01T07:36:51;6.53;;;5.93;;
14040;SDS011;7095;51.388;6.196;2023-04-01T07:39:30;6.93;;;6.23;;
14040;SDS011;7095;51.388;6.196;2023-04-01T07:42:35;8.60;;;6.40;;
14040;SDS011;7095;51.388;6.196;2023-04-01T07:45:15;8.73;;;6.67;;
14040;SDS011;7095;51.388;6.196;2023-04-01T07:47:55;9.03;;;6.30;;
14040;SDS011;7095;51.388;6.196;2023-04-01T07:50:37;7.73;;;6.93;;
14040;SDS011;7095;51.388;6.196;2023-04-01T07:53:13;7.80;;;6.80;;
14040;SDS011;7095;51.388;6.196;2023-04-01T07:55:54;8.83;;;6.93;;
14040;SDS011;7095;51.388;6.196;2023-04-01T07:58:35;9.83;;;6.77;;
14040;SDS011;7095;51.388;6.196;2023-04-01T08:01:39;9.77;;;7.17;;
14040;SDS011;7095;51.388;6.196;2023-04-01T08:04:18;8.00;;;7.20;;
14040;SDS011;7095;51.388;6.196;2023-04-01T08:06:59;10.00;;;8.23;;
14040;SDS011;7095;51.388;6.196;2023-04-01T08:09:40;15.00;;;8.37;;
14040;SDS011;7095;51.388;6.196;2023-04-01T08:12:37;9.17;;;8.13;;
14040;SDS011;7095;51.388;6.196;2023-04-01T08:15:40;12.33;;;9.30;;
14040;SDS011;7095;51.388;6.196;2023-04-01T08:18:37;16.73;;;10.17;;
14040;SDS011;7095;51.388;6.196;2023-04-01T08:21:10;17.17;;;9.73;;
14040;SDS011;7095;51.388;6.196;2023-04-01T08:23:43;13.93;;;10.67;;
14040;SDS011;7095;51.388;6.196;2023-04-01T08:26:16;15.10;;;11.10;;
14040;SDS011;7095;51.388;6.196;2023-04-01T08:28:57;15.03;;;11.90;;
14040;SDS011;7095;51.388;6.196;2023-04-01T08:31:33;17.13;;;12.37;;
14040;SDS011;7095;51.388;6.196;2023-04-01T08:34:08;16.03;;;12.57;;
14040;SDS011;7095;51.388;6.196;2023-04-01T08:36:43;16.40;;;12.53;;
14040;SDS011;7095;51.388;6.196;2023-04-01T08:39:16;15.97;;;12.07;;
14040;SDS011;7095;51.388;6.196;2023-04-01T08:42:01;20.03;;;13.10;;
14040;SDS011;7095;51.388;6.196;2023-04-01T08:48:31;18.97;;;13.73;;
14040;SDS011;7095;51.388;6.196;2023-04-01T08:54:25;19.30;;;14.80;;
14040;SDS011;7095;51.388;6.196;2023-04-01T08:57:06;19.80;;;15.07;;
14040;SDS011;7095;51.388;6.196;2023-04-01T09:00:04;19.30;;;14.70;;
14040;SDS011;7095;51.388;6.196;2023-04-01T09:12:09;18.53;;;14.87;;
14040;SDS011;7095;51.388;6.196;2023-04-01T09:18:06;20.90;;;16.60;;
14040;SDS011;7095;51.388;6.196;2023-04-01T09:20:53;19.13;;;15.27;;
14040;SDS011;7095;51.388;6.196;2023-04-01T09:23:41;22.53;;;17.17;;
14040;SDS011;7095;51.388;6.196;2023-04-01T09:26:29;23.53;;;16.97;;
14040;SDS011;7095;51.388;6.196;2023-04-01T09:29:10;20.27;;;15.87;;
14040;SDS011;7095;51.388;6.196;2023-04-01T09:31:58;26.60;;;17.67;;
14040;SDS011;7095;51.388;6.196;2023-04-01T09:34:52;24.57;;;17.13;;
14040;SDS011;7095;51.388;6.196;2023-04-01T09:37:35;25.93;;;16.60;;
14040;SDS011;7095;51.388;6.196;2023-04-01T09:40:21;27.13;;;18.77;;
14040;SDS011;7095;51.388;6.196;2023-04-01T09:43:05;26.20;;;18.00;;
14040;SDS011;7095;51.388;6.196;2023-04-01T09:45:52;25.70;;;17.73;;
14040;SDS011;7095;51.388;6.196;2023-04-01T09:51:36;29.73;;;19.10;;
14040;SDS011;7095;51.388;6.196;2023-04-01T09:54:13;32.70;;;20.57;;
14040;SDS011;7095;51.388;6.196;2023-04-01T09:57:07;27.30;;;19.77;;
14040;SDS011;7095;51.388;6.196;2023-04-01T10:00:10;32.83;;;20.93;;
14040;SDS011;7095;51.388;6.196;2023-04-01T10:16:10;27.90;;;17.60;;
14040;SDS011;7095;51.388;6.196;2023-04-01T10:19:12;22.77;;;17.47;;
14040;SDS011;7095;51.388;6.196;2023-04-01T10:22:39;23.70;;;17.80;;
14040;SDS011;7095;51.388;6.196;2023-04-01T10:32:28;20.13;;;15.97;;
14040;SDS011;7095;51.388;6.196;2023-04-01T10:35:30;22.67;;;16.30;;
14040;SDS011;7095;51.388;6.196;2023-04-01T10:38:34;20.13;;;15.97;;
14040;SDS011;7095;51.388;6.196;2023-04-01T10:41:30;18.50;;;14.77;;
14040;SDS011;7095;51.388;6.196;2023-04-01T10:50:50;19.03;;;12.37;;
14040;SDS011;7095;51.388;6.196;2023-04-01T10:53:34;14.97;;;12.70;;
14040;SDS011;7095;51.388;6.196;2023-04-01T10:56:34;15.30;;;12.53;;
14040;SDS011;7095;51.388;6.196;2023-04-01T11:02:50;17.57;;;13.07;;
14040;SDS011;7095;51.388;6.196;2023-04-01T11:09:34;15.53;;;11.13;;
14040;SDS011;7095;51.388;6.196;2023-04-01T11:12:37;12.77;;;9.83;;
14040;SDS011;7095;51.388;6.196;2023-04-01T11:15:23;13.73;;;9.53;;
14040;SDS011;7095;51.388;6.196;2023-04-01T11:25:04;11.53;;;9.57;;
14040;SDS011;7095;51.388;6.196;2023-04-01T11:28:27;14.63;;;10.60;;
14040;SDS011;7095;51.388;6.196;2023-04-01T11:31:23;15.63;;;11.87;;
14040;SDS011;7095;51.388;6.196;2023-04-01T11:34:04;19.33;;;13.67;;
14040;SDS011;7095;51.388;6.196;2023-04-01T11:36:43;17.70;;;13.37;;
14040;SDS011;7095;51.388;6.196;2023-04-01T11:39:31;18.23;;;13.87;;
14040;SDS011;7095;51.388;6.196;2023-04-01T11:42:28;18.70;;;13.07;;
14040;SDS011;7095;51.388;6.196;2023-04-01T11:45:32;18.33;;;13.87;;
14040;SDS011;7095;51.388;6.196;2023-04-01T11:48:13;19.93;;;13.93;;
14040;SDS011;7095;51.388;6.196;2023-04-01T11:51:04;15.47;;;13.27;;
14040;SDS011;7095;51.388;6.196;2023-04-01T11:53:44;17.40;;;13.50;;
14040;SDS011;7095;51.388;6.196;2023-04-01T11:56:27;18.10;;;12.87;;
14040;SDS011;7095;51.388;6.196;2023-04-01T11:59:29;21.83;;;14.27;;
14040;SDS011;7095;51.388;6.196;2023-04-01T12:02:11;19.10;;;14.77;;
14040;SDS011;7095;51.388;6.196;2023-04-01T12:04:54;18.43;;;13.13;;
14040;SDS011;7095;51.388;6.196;2023-04-01T12:10:25;17.53;;;12.57;;
14040;SDS011;7095;51.388;6.196;2023-04-01T12:13:04;14.73;;;11.37;;
14040;SDS011;7095;51.388;6.196;2023-04-01T12:15:51;14.93;;;11.33;;
14040;SDS011;7095;51.388;6.196;2023-04-01T12:18:28;12.67;;;10.37;;
14040;SDS011;7095;51.388;6.196;2023-04-01T12:21:08;20.13;;;11.30;;
14040;SDS011;7095;51.388;6.196;2023-04-01T12:24:04;16.10;;;11.97;;
14040;SDS011;7095;51.388;6.196;2023-04-01T12:26:59;13.53;;;11.00;;
14040;SDS011;7095;51.388;6.196;2023-04-01T12:29:41;11.97;;;10.17;;
14040;SDS011;7095;51.388;6.196;2023-04-01T12:32:24;13.37;;;10.20;;
14040;SDS011;7095;51.388;6.196;2023-04-01T12:35:07;12.73;;;9.80;;
14040;SDS011;7095;51.388;6.196;2023-04-01T12:37:55;11.67;;;9.47;;
14040;SDS011;7095;51.388;6.196;2023-04-01T12:46:37;13.27;;;9.73;;
14040;SDS011;7095;51.388;6.196;2023-04-01T12:49:26;11.27;;;9.53;;
14040;SDS011;7095;51.388;6.196;2023-04-01T12:52:07;12.00;;;10.53;;
14040;SDS011;7095;51.388;6.196;2023-04-01T13:01:23;11.40;;;8.73;;
14040;SDS011;7095;51.388;6.196;2023-04-01T13:07:04;11.03;;;8.73;;
14040;SDS011;7095;51.388;6.196;2023-04-01T13:10:01;9.93;;;8.50;;
14040;SDS011;7095;51.388;6.196;2023-04-01T13:15:44;10.83;;;9.00;;
14040;SDS011;7095;51.388;6.196;2023-04-01T13:18:21;10.47;;;8.30;;
14040;SDS011;7095;51.388;6.196;2023-04-01T13:21:02;10.13;;;8.80;;
14040;SDS011;7095;51.388;6.196;2023-04-01T13:23:40;11.73;;;7.97;;
14040;SDS011;7095;51.388;6.196;2023-04-01T13:26:18;9.03;;;7.57;;
14040;SDS011;7095;51.388;6.196;2023-04-01T13:28:57;7.20;;;6.27;;
14040;SDS011;7095;51.388;6.196;2023-04-01T13:31:42;7.10;;;6.07;;
14040;SDS011;7095;51.388;6.196;2023-04-01T13:34:24;7.63;;;6.10;;
14040;SDS011;7095;51.388;6.196;2023-04-01T13:37:13;6.77;;;5.40;;
14040;SDS011;7095;51.388;6.196;2023-04-01T13:39:57;6.47;;;5.87;;
14040;SDS011;7095;51.388;6.196;2023-04-01T13:42:43;7.17;;;5.80;;
14040;SDS011;7095;51.388;6.196;2023-04-01T13:45:15;6.90;;;6.30;;
14040;SDS011;7095;51.388;6.196;2023-04-01T13:47:54;5.60;;;5.10;;
14040;SDS011;7095;51.388;6.196;2023-04-01T13:50:34;5.57;;;5.07;;
14040;SDS011;7095;51.388;6.196;2023-04-01T13:53:23;5.67;;;5.03;;
14040;SDS011;7095;51.388;6.196;2023-04-01T13:56:15;6.37;;;5.77;;
14040;SDS011;7095;51.388;6.196;2023-04-01T13:59:00;6.57;;;5.53;;
14040;SDS011;7095;51.388;6.196;2023-04-01T14:01:39;7.57;;;5.97;;
14040;SDS011;7095;51.388;6.196;2023-04-01T14:07:22;6.13;;;5.53;;
14040;SDS011;7095;51.388;6.196;2023-04-01T14:12:57;8.40;;;6.57;;
14040;SDS011;7095;51.388;6.196;2023-04-01T14:15:35;7.60;;;6.20;;
14040;SDS011;7095;51.388;6.196;2023-04-01T14:21:14;8.83;;;6.73;;
14040;SDS011;7095;51.388;6.196;2023-04-01T14:24:08;7.27;;;5.97;;
14040;SDS011;7095;51.388;6.196;2023-04-01T14:29:59;6.47;;;5.53;;
14040;SDS011;7095;51.388;6.196;2023-04-01T14:32:43;5.67;;;5.13;;
14040;SDS011;7095;51.388;6.196;2023-04-01T14:35:21;5.97;;;5.33;;
14040;SDS011;7095;51.388;6.196;2023-04-01T14:38:20;6.87;;;5.43;;
14040;SDS011;7095;51.388;6.196;2023-04-01T14:40:58;5.67;;;5.07;;
14040;SDS011;7095;51.388;6.196;2023-04-01T14:43:41;5.20;;;4.70;;
14040;SDS011;7095;51.388;6.196;2023-04-01T14:46:24;6.33;;;5.57;;
14040;SDS011;7095;51.388;6.196;2023-04-01T14:49:04;6.43;;;5.43;;
14040;SDS011;7095;51.388;6.196;2023-04-01T14:51:44;7.60;;;5.87;;
14040;SDS011;7095;51.388;6.196;2023-04-01T14:54:14;6.93;;;6.10;;
14040;SDS011;7095;51.388;6.196;2023-04-01T14:56:50;7.30;;;5.90;;
14040;SDS011;7095;51.388;6.196;2023-04-01T14:59:26;6.83;;;6.03;;
14040;SDS011;7095;51.388;6.196;2023-04-01T15:01:58;6.03;;;5.43;;
14040;SDS011;7095;51.388;6.196;2023-04-01T15:04:56;6.27;;;5.67;;
14040;SDS011;7095;51.388;6.196;2023-04-01T15:07:45;6.97;;;6.03;;
14040;SDS011;7095;51.388;6.196;2023-04-01T15:13:29;6.37;;;5.17;;
14040;SDS011;7095;51.388;6.196;2023-04-01T15:16:14;6.83;;;5.60;;
14040;SDS011;7095;51.388;6.196;2023-04-01T15:18:53;5.93;;;5.33;;
14040;SDS011;7095;51.388;6.196;2023-04-01T15:24:38;7.50;;;6.23;;
14040;SDS011;7095;51.388;6.196;2023-04-01T15:30:17;10.47;;;6.53;;
14040;SDS011;7095;51.388;6.196;2023-04-01T15:32:59;8.17;;;6.70;;
14040;SDS011;7095;51.388;6.196;2023-04-01T15:35:41;7.30;;;6.13;;
14040;SDS011;7095;51.388;6.196;2023-04-01T15:38:18;8.40;;;6.13;;
14040;SDS011;7095;51.388;6.196;2023-04-01T15:40:57;7.23;;;5.87;;
14040;SDS011;7095;51.388;6.196;2023-04-01T15:43:35;8.50;;;6.17;;
14040;SDS011;7095;51.388;6.196;2023-04-01T15:49:12;8.80;;;7.23;;
14040;SDS011;7095;51.388;6.196;2023-04-01T15:52:03;9.67;;;6.60;;
14040;SDS011;7095;51.388;6.196;2023-04-01T15:54:46;9.77;;;7.37;;
14040;SDS011;7095;51.388;6.196;2023-04-01T15:57:26;8.60;;;7.03;;
14040;SDS011;7095;51.388;6.196;2023-04-01T16:00:04;8.07;;;6.90;;
14040;SDS011;7095;51.388;6.196;2023-04-01T16:02:42;10.63;;;7.67;;
14040;SDS011;7095;51.388;6.196;2023-04-01T16:05:25;9.07;;;7.50;;
14040;SDS011;7095;51.388;6.196;2023-04-01T16:08:10;12.13;;;8.07;;
14040;SDS011;7095;51.388;6.196;2023-04-01T16:10:52;10.50;;;6.87;;
14040;SDS011;7095;51.388;6.196;2023-04-01T16:13:35;11.53;;;8.27;;
14040;SDS011;7095;51.388;6.196;2023-04-01T16:16:15;9.37;;;7.17;;
14040;SDS011;7095;51.388;6.196;2023-04-01T16:18:58;11.33;;;7.47;;
14040;SDS011;7095;51.388;6.196;2023-04-01T16:21:42;9.43;;;7.47;;
14040;SDS011;7095;51.388;6.196;2023-04-01T16:24:19;10.20;;;7.70;;
14040;SDS011;7095;51.388;6.196;2023-04-01T16:26:53;10.70;;;7.77;;
14040;SDS011;7095;51.388;6.196;2023-04-01T16:29:26;9.27;;;7.60;;
14040;SDS011;7095;51.388;6.196;2023-04-01T16:32:06;9.73;;;7.57;;
14040;SDS011;7095;51.388;6.196;2023-04-01T16:34:47;8.20;;;7.27;;
14040;SDS011;7095;51.388;6.196;2023-04-01T16:37:29;10.30;;;7.67;;
14040;SDS011;7095;51.388;6.196;2023-04-01T16:40:09;8.63;;;7.73;;
14040;SDS011;7095;51.388;6.196;2023-04-01T16:42:46;9.47;;;8.50;;
14040;SDS011;7095;51.388;6.196;2023-04-01T16:45:28;10.23;;;7.80;;
14040;SDS011;7095;51.388;6.196;2023-04-01T16:48:06;9.57;;;7.40;;
14040;SDS011;7095;51.388;6.196;2023-04-01T16:50:41;10.30;;;8.80;;
14040;SDS011;7095;51.388;6.196;2023-04-01T16:53:17;10.43;;;8.80;;
14040;SDS011;7095;51.388;6.196;2023-04-01T16:55:55;11.20;;;9.20;;
14040;SDS011;7095;51.388;6.196;2023-04-01T16:58:33;9.77;;;8.47;;
14040;SDS011;7095;51.388;6.196;2023-04-01T17:01:04;9.27;;;8.37;;
14040;SDS011;7095;51.388;6.196;2023-04-01T17:03:36;10.07;;;8.93;;
14040;SDS011;7095;51.388;6.196;2023-04-01T17:06:12;12.70;;;8.93;;
14040;SDS011;7095;51.388;6.196;2023-04-01T17:11:56;11.10;;;9.30;;
14040;SDS011;7095;51.388;6.196;2023-04-01T17:14:28;14.03;;;9.80;;
14040;SDS011;7095;51.388;6.196;2023-04-01T17:17:09;11.03;;;9.87;;
14040;SDS011;7095;51.388;6.196;2023-04-01T17:22:49;13.17;;;9.97;;
14040;SDS011;7095;51.388;6.196;2023-04-01T17:25:29;12.47;;;10.37;;
14040;SDS011;7095;51.388;6.196;2023-04-01T17:28:08;16.00;;;11.87;;
14040;SDS011;7095;51.388;6.196;2023-04-01T17:30:49;13.53;;;10.80;;
14040;SDS011;7095;51.388;6.196;2023-04-01T17:36:27;13.10;;;11.70;;
14040;SDS011;7095;51.388;6.196;2023-04-01T17:41:59;13.67;;;11.87;;
14040;SDS011;7095;51.388;6.196;2023-04-01T17:44:43;16.77;;;12.73;;
14040;SDS011;7095;51.388;6.196;2023-04-01T17:47:21;14.20;;;11.83;;
14040;SDS011;7095;51.388;6.196;2023-04-01T17:50:19;14.03;;;12.27;;
14040;SDS011;7095;51.388;6.196;2023-04-01T17:52:56;14.63;;;12.93;;
14040;SDS011;7095;51.388;6.196;2023-04-01T17:55:41;14.37;;;12.13;;
14040;SDS011;7095;51.388;6.196;2023-04-01T17:58:17;16.97;;;13.20;;
14040;SDS011;7095;51.388;6.196;2023-04-01T18:00:57;13.77;;;11.83;;
14040;SDS011;7095;51.388;6.196;2023-04-01T18:03:49;14.07;;;12.07;;
14040;SDS011;7095;51.388;6.196;2023-04-01T18:06:35;15.67;;;11.93;;
14040;SDS011;7095;51.388;6.196;2023-04-01T18:09:13;14.83;;;12.40;;
14040;SDS011;7095;51.388;6.196;2023-04-01T18:11:52;13.70;;;11.57;;